createdAt,value
2022-10-31T00:00:05.384Z,1015.20
2022-10-31T00:01:05.281Z,1015.16
2022-10-31T00:02:05.400Z,1015.18
2022-10-31T00:03:05.284Z,1015.22
2022-10-31T00:04:05.251Z,1015.21
2022-10-31T00:05:05.235Z,1015.26
2022-10-31T00:06:05.223Z,1015.23
2022-10-31T00:07:05.221Z,1015.18
2022-10-31T00:08:05.208Z,1015.19
2022-10-31T00:09:05.198Z,1015.20
2022-10-31T00:10:05.183Z,1015.17
2022-10-31T00:11:05.175Z,1015.23
2022-10-31T00:12:05.207Z,1015.25
2022-10-31T00:13:05.140Z,1015.29
2022-10-31T00:14:05.132Z,1015.31
2022-10-31T00:15:05.126Z,1015.30
2022-10-31T00:16:05.114Z,1015.32
2022-10-31T00:17:05.143Z,1015.33
2022-10-31T00:18:05.084Z,1015.33
2022-10-31T00:19:05.078Z,1015.33
2022-10-31T00:20:05.084Z,1015.31
2022-10-31T00:21:05.053Z,1015.32
2022-10-31T00:22:05.046Z,1015.32
2022-10-31T00:23:05.053Z,1015.30
2022-10-31T00:24:05.017Z,1015.37
2022-10-31T00:25:05.014Z,1015.36
2022-10-31T00:26:04.998Z,1015.30
2022-10-31T00:27:04.989Z,1015.26
2022-10-31T00:28:05.060Z,1015.23
2022-10-31T00:29:04.967Z,1015.23
2022-10-31T00:30:04.950Z,1015.25
2022-10-31T00:31:04.943Z,1015.26
2022-10-31T00:32:04.927Z,1015.25
2022-10-31T00:33:04.925Z,1015.23
2022-10-31T00:34:04.928Z,1015.19
2022-10-31T00:35:04.909Z,1015.11
2022-10-31T00:36:04.886Z,1015.07
2022-10-31T00:37:04.887Z,1015.03
2022-10-31T00:38:04.870Z,1015.12
2022-10-31T00:39:04.875Z,1015.26
2022-10-31T00:40:04.861Z,1015.33
2022-10-31T00:41:04.836Z,1015.42
2022-10-31T00:42:04.819Z,1015.43
2022-10-31T00:43:05.180Z,1015.41
2022-10-31T00:44:04.821Z,1015.42
2022-10-31T00:45:04.797Z,1015.46
2022-10-31T00:46:04.775Z,1015.47
2022-10-31T00:47:04.770Z,1015.56
2022-10-31T00:48:04.754Z,1015.58
2022-10-31T00:49:04.738Z,1015.55
2022-10-31T00:50:04.755Z,1015.55
2022-10-31T00:51:04.717Z,1015.56
2022-10-31T00:52:04.731Z,1015.59
2022-10-31T00:53:04.695Z,1015.59
2022-10-31T00:54:04.688Z,1015.61
2022-10-31T00:55:04.722Z,1015.60
2022-10-31T00:56:04.688Z,1015.59
2022-10-31T00:57:04.649Z,1015.57
2022-10-31T00:58:05.081Z,1015.52
2022-10-31T00:59:04.626Z,1015.52
2022-10-31T01:00:04.640Z,1015.50
2022-10-31T01:01:04.860Z,1015.52
2022-10-31T01:02:04.737Z,1015.49
2022-10-31T01:03:04.632Z,1015.49
2022-10-31T01:04:04.572Z,1015.52
2022-10-31T01:05:04.558Z,1015.50
2022-10-31T01:06:04.555Z,1015.50
2022-10-31T01:07:04.576Z,1015.45
2022-10-31T01:08:04.534Z,1015.42
2022-10-31T01:09:04.518Z,1015.36
2022-10-31T01:10:04.512Z,1015.32
2022-10-31T01:11:04.493Z,1015.28
2022-10-31T01:12:04.543Z,1015.26
2022-10-31T01:13:04.479Z,1015.25
2022-10-31T01:14:04.469Z,1015.27
2022-10-31T01:15:04.447Z,1015.25
2022-10-31T01:16:04.456Z,1015.25
2022-10-31T01:17:04.432Z,1015.22
2022-10-31T01:18:04.438Z,1015.24
2022-10-31T01:19:04.428Z,1015.19
2022-10-31T01:20:04.413Z,1015.22
2022-10-31T01:21:04.387Z,1015.23
2022-10-31T01:22:04.383Z,1015.21
2022-10-31T01:23:04.374Z,1015.20
2022-10-31T01:24:04.348Z,1015.26
2022-10-31T01:25:04.339Z,1015.30
2022-10-31T01:26:04.344Z,1015.28
2022-10-31T01:27:04.325Z,1015.28
2022-10-31T01:28:04.328Z,1015.26
2022-10-31T01:29:04.301Z,1015.24
2022-10-31T01:30:04.292Z,1015.17
2022-10-31T01:31:04.274Z,1015.13
2022-10-31T01:32:04.285Z,1015.13
2022-10-31T01:33:04.266Z,1015.12
2022-10-31T01:34:04.254Z,1015.10
2022-10-31T01:35:04.229Z,1015.03
2022-10-31T01:36:04.213Z,1015.00
2022-10-31T01:37:04.199Z,1014.97
2022-10-31T01:38:04.229Z,1015.02
2022-10-31T01:39:04.188Z,1015.07
2022-10-31T01:40:04.181Z,1015.06
2022-10-31T01:41:04.167Z,1015.11
2022-10-31T01:42:04.147Z,1015.10
2022-10-31T01:43:04.156Z,1015.10
2022-10-31T01:44:04.131Z,1015.05
2022-10-31T01:45:04.116Z,1015.08
2022-10-31T01:46:04.111Z,1015.03
2022-10-31T01:47:04.093Z,1015.01
2022-10-31T01:48:04.120Z,1014.95
2022-10-31T01:49:04.801Z,1014.97
2022-10-31T01:50:04.061Z,1014.95
2022-10-31T01:51:04.049Z,1014.96
2022-10-31T01:52:04.035Z,1014.98
2022-10-31T01:53:04.036Z,1015.02
2022-10-31T01:54:04.009Z,1014.98
2022-10-31T01:55:04.006Z,1014.96
2022-10-31T01:56:03.986Z,1014.94
2022-10-31T01:57:03.981Z,1014.95
2022-10-31T01:58:04.319Z,1014.91
2022-10-31T01:59:03.963Z,1014.89
2022-10-31T02:00:03.942Z,1014.86
2022-10-31T02:01:07.630Z,1014.85
2022-10-31T02:02:04.126Z,1014.85
2022-10-31T02:03:04.235Z,1014.86
2022-10-31T02:04:03.927Z,1014.86
2022-10-31T02:05:03.892Z,1014.88
2022-10-31T02:06:03.890Z,1014.86
2022-10-31T02:07:03.864Z,1014.85
2022-10-31T02:08:03.850Z,1014.83
2022-10-31T02:09:03.861Z,1014.81
2022-10-31T02:10:03.848Z,1014.83
2022-10-31T02:11:03.816Z,1014.83
2022-10-31T02:12:03.817Z,1014.85
2022-10-31T02:13:03.906Z,1014.88
2022-10-31T02:14:03.826Z,1014.85
2022-10-31T02:15:03.774Z,1014.86
2022-10-31T02:16:03.762Z,1014.89
2022-10-31T02:17:03.748Z,1014.87
2022-10-31T02:18:03.947Z,1014.86
2022-10-31T02:19:03.754Z,1014.84
2022-10-31T02:20:03.743Z,1014.87
2022-10-31T02:21:03.713Z,1014.93
2022-10-31T02:22:03.718Z,1014.95
2022-10-31T02:23:03.688Z,1014.95
2022-10-31T02:24:03.693Z,1014.97
2022-10-31T02:25:03.661Z,1015.00
2022-10-31T02:26:03.660Z,1015.01
2022-10-31T02:27:03.650Z,1015.00
2022-10-31T02:28:04.169Z,1014.99
2022-10-31T02:29:03.628Z,1015.00
2022-10-31T02:30:03.611Z,1015.01
2022-10-31T02:31:03.598Z,1015.01
2022-10-31T02:32:03.582Z,1015.01
2022-10-31T02:33:04.025Z,1014.97
2022-10-31T02:34:03.578Z,1014.97
2022-10-31T02:35:03.554Z,1014.98
2022-10-31T02:36:03.553Z,1014.97
2022-10-31T02:37:03.529Z,1014.96
2022-10-31T02:38:03.521Z,1014.97
2022-10-31T02:39:03.522Z,1014.95
2022-10-31T02:40:03.506Z,1014.97
2022-10-31T02:41:03.533Z,1014.98
2022-10-31T02:42:03.479Z,1014.97
2022-10-31T02:43:04.163Z,1015.03
2022-10-31T02:44:03.459Z,1015.01
2022-10-31T02:45:03.431Z,1015.07
2022-10-31T02:46:03.427Z,1015.05
2022-10-31T02:47:03.425Z,1015.08
2022-10-31T02:48:03.419Z,1015.12
2022-10-31T02:49:03.410Z,1015.11
2022-10-31T02:50:03.385Z,1015.12
2022-10-31T02:51:03.374Z,1015.17
2022-10-31T02:52:03.384Z,1015.11
2022-10-31T02:53:03.353Z,1015.14
2022-10-31T02:54:03.351Z,1015.15
2022-10-31T02:55:03.324Z,1015.09
2022-10-31T02:56:03.336Z,1015.14
2022-10-31T02:57:03.295Z,1015.16
2022-10-31T02:58:03.591Z,1015.15
2022-10-31T02:59:03.294Z,1015.14
2022-10-31T03:00:03.274Z,1015.12
2022-10-31T03:01:03.479Z,1015.11
2022-10-31T03:02:03.414Z,1015.11
2022-10-31T03:03:03.566Z,1015.12
2022-10-31T03:04:03.231Z,1015.12
2022-10-31T03:05:03.210Z,1015.12
2022-10-31T03:06:03.199Z,1015.12
2022-10-31T03:07:03.189Z,1015.11
2022-10-31T03:08:03.197Z,1015.11
2022-10-31T03:09:03.175Z,1015.11
2022-10-31T03:10:03.166Z,1015.10
2022-10-31T03:11:03.156Z,1015.08
2022-10-31T03:12:03.149Z,1015.05
2022-10-31T03:13:03.459Z,1015.10
2022-10-31T03:14:03.117Z,1015.07
2022-10-31T03:15:03.108Z,1015.07
2022-10-31T03:16:03.093Z,1015.11
2022-10-31T03:17:03.076Z,1015.04
2022-10-31T03:18:03.537Z,1015.06
2022-10-31T03:19:03.069Z,1015.04
2022-10-31T03:20:03.041Z,1015.05
2022-10-31T03:21:03.032Z,1015.07
2022-10-31T03:22:03.021Z,1015.09
2022-10-31T03:23:03.010Z,1015.12
2022-10-31T03:24:03.035Z,1015.15
2022-10-31T03:25:02.986Z,1015.19
2022-10-31T03:26:02.980Z,1015.16
2022-10-31T03:27:02.958Z,1015.18
2022-10-31T03:28:03.504Z,1015.19
2022-10-31T03:29:02.969Z,1015.15
2022-10-31T03:30:02.935Z,1015.14
2022-10-31T03:31:04.852Z,1015.13
2022-10-31T03:32:02.908Z,1015.14
2022-10-31T03:33:03.174Z,1015.13
2022-10-31T03:34:02.895Z,1015.14
2022-10-31T03:35:02.877Z,1015.10
2022-10-31T03:36:02.871Z,1015.10
2022-10-31T03:37:02.854Z,1015.09
2022-10-31T03:38:05.545Z,1015.08
2022-10-31T03:39:02.844Z,1015.07
2022-10-31T03:40:02.841Z,1015.05
2022-10-31T03:41:02.806Z,1015.06
2022-10-31T03:42:02.800Z,1015.09
2022-10-31T03:43:03.169Z,1015.07
2022-10-31T03:44:02.782Z,1015.06
2022-10-31T03:45:02.779Z,1015.09
2022-10-31T03:46:02.752Z,1015.07
2022-10-31T03:47:02.747Z,1015.08
2022-10-31T03:48:03.163Z,1015.05
2022-10-31T03:49:02.732Z,1015.04
2022-10-31T03:50:02.700Z,1015.01
2022-10-31T03:51:02.685Z,1015.01
2022-10-31T03:52:02.692Z,1015.03
2022-10-31T03:53:02.667Z,1015.02
2022-10-31T03:54:02.682Z,1015.04
2022-10-31T03:55:02.661Z,1015.01
2022-10-31T03:56:02.654Z,1015.03
2022-10-31T03:57:02.623Z,1015.01
2022-10-31T03:58:03.194Z,1015.05
2022-10-31T03:59:02.620Z,1015.08
2022-10-31T04:00:02.597Z,1015.10
2022-10-31T04:01:02.667Z,1015.14
2022-10-31T04:02:02.772Z,1015.13
2022-10-31T04:03:02.963Z,1015.14
2022-10-31T04:04:02.579Z,1015.13
2022-10-31T04:05:02.543Z,1015.14
2022-10-31T04:06:02.526Z,1015.08
2022-10-31T04:07:02.516Z,1015.03
2022-10-31T04:08:02.499Z,1014.99
2022-10-31T04:09:02.514Z,1014.97
2022-10-31T04:10:02.491Z,1015.04
2022-10-31T04:11:02.472Z,1015.03
2022-10-31T04:12:02.481Z,1015.03
2022-10-31T04:13:02.927Z,1015.04
2022-10-31T04:14:02.437Z,1015.01
2022-10-31T04:15:02.433Z,1015.07
2022-10-31T04:16:02.412Z,1015.07
2022-10-31T04:17:02.398Z,1015.07
2022-10-31T04:18:02.796Z,1015.11
2022-10-31T04:19:02.374Z,1015.06
2022-10-31T04:20:02.386Z,1015.07
2022-10-31T04:21:02.351Z,1015.00
2022-10-31T04:22:02.348Z,1014.99
2022-10-31T04:23:02.336Z,1014.98
2022-10-31T04:24:02.314Z,1014.99
2022-10-31T04:25:02.321Z,1014.99
2022-10-31T04:26:02.301Z,1014.96
2022-10-31T04:27:02.283Z,1014.96
2022-10-31T04:28:02.746Z,1014.97
2022-10-31T04:29:02.264Z,1014.99
2022-10-31T04:30:02.277Z,1015.00
2022-10-31T04:31:02.235Z,1015.01
2022-10-31T04:32:02.232Z,1015.01
2022-10-31T04:33:02.652Z,1015.01
2022-10-31T04:34:02.203Z,1014.98
2022-10-31T04:35:02.206Z,1014.98
2022-10-31T04:36:02.182Z,1014.97
2022-10-31T04:37:02.173Z,1014.97
2022-10-31T04:38:02.159Z,1015.02
2022-10-31T04:39:02.154Z,1014.97
2022-10-31T04:40:02.171Z,1014.98
2022-10-31T04:41:02.135Z,1014.96
2022-10-31T04:42:02.121Z,1014.88
2022-10-31T04:43:02.484Z,1014.92
2022-10-31T04:44:02.116Z,1014.83
2022-10-31T04:45:02.084Z,1014.84
2022-10-31T04:46:02.091Z,1014.84
2022-10-31T04:47:02.063Z,1014.80
2022-10-31T04:48:02.543Z,1014.80
2022-10-31T04:49:02.035Z,1014.79
2022-10-31T04:50:02.034Z,1014.82
2022-10-31T04:51:02.032Z,1014.82
2022-10-31T04:52:02.011Z,1014.84
2022-10-31T04:53:01.995Z,1014.85
2022-10-31T04:54:02.013Z,1014.84
2022-10-31T04:55:01.965Z,1014.85
2022-10-31T04:56:02.036Z,1014.92
2022-10-31T04:57:01.950Z,1014.89
2022-10-31T04:58:02.361Z,1014.89
2022-10-31T04:59:01.926Z,1014.89
2022-10-31T05:00:01.936Z,1014.90
2022-10-31T05:01:01.986Z,1014.86
2022-10-31T05:02:02.053Z,1014.85
2022-10-31T05:03:02.349Z,1014.83
2022-10-31T05:04:01.869Z,1014.79
2022-10-31T05:05:01.859Z,1014.78
2022-10-31T05:06:01.863Z,1014.77
2022-10-31T05:07:01.839Z,1014.76
2022-10-31T05:08:01.818Z,1014.76
2022-10-31T05:09:01.813Z,1014.71
2022-10-31T05:10:01.840Z,1014.68
2022-10-31T05:11:04.395Z,1014.69
2022-10-31T05:12:01.783Z,1014.69
2022-10-31T05:13:02.263Z,1014.70
2022-10-31T05:14:01.749Z,1014.69
2022-10-31T05:15:01.753Z,1014.66
2022-10-31T05:16:01.803Z,1014.64
2022-10-31T05:17:01.729Z,1014.65
2022-10-31T05:18:02.090Z,1014.65
2022-10-31T05:19:01.700Z,1014.62
2022-10-31T05:20:01.693Z,1014.65
2022-10-31T05:21:01.690Z,1014.68
2022-10-31T05:22:01.660Z,1014.67
2022-10-31T05:23:01.666Z,1014.71
2022-10-31T05:24:01.645Z,1014.72
2022-10-31T05:25:01.631Z,1014.72
2022-10-31T05:26:01.641Z,1014.73
2022-10-31T05:27:01.605Z,1014.67
2022-10-31T05:28:01.831Z,1014.69
2022-10-31T05:29:01.583Z,1014.66
2022-10-31T05:30:01.594Z,1014.64
2022-10-31T05:31:01.590Z,1014.64
2022-10-31T05:32:01.582Z,1014.67
2022-10-31T05:33:01.923Z,1014.57
2022-10-31T05:34:01.540Z,1014.57
2022-10-31T05:35:01.517Z,1014.60
2022-10-31T05:36:01.537Z,1014.58
2022-10-31T05:37:01.497Z,1014.57
2022-10-31T05:38:01.489Z,1014.55
2022-10-31T05:39:01.505Z,1014.57
2022-10-31T05:40:06.925Z,1014.56
2022-10-31T05:41:02.475Z,1014.57
2022-10-31T05:42:01.442Z,1014.54
2022-10-31T05:43:01.881Z,1014.52
2022-10-31T05:44:01.423Z,1014.54
2022-10-31T05:45:01.403Z,1014.53
2022-10-31T05:46:01.406Z,1014.54
2022-10-31T05:47:01.389Z,1014.51
2022-10-31T05:48:01.812Z,1014.52
2022-10-31T05:49:02.846Z,1014.50
2022-10-31T05:50:01.365Z,1014.48
2022-10-31T05:51:01.346Z,1014.42
2022-10-31T05:52:01.328Z,1014.43
2022-10-31T05:53:01.315Z,1014.43
2022-10-31T05:54:01.305Z,1014.41
2022-10-31T05:55:01.294Z,1014.45
2022-10-31T05:56:01.294Z,1014.43
2022-10-31T05:57:01.272Z,1014.43
2022-10-31T05:58:01.654Z,1014.44
2022-10-31T05:59:01.255Z,1014.43
2022-10-31T06:00:01.253Z,1014.45
2022-10-31T06:01:01.249Z,1014.43
2022-10-31T06:02:01.209Z,1014.40
2022-10-31T06:03:01.298Z,1014.41
2022-10-31T06:04:01.217Z,1014.40
2022-10-31T06:05:01.234Z,1014.42
2022-10-31T06:06:01.185Z,1014.43
2022-10-31T06:07:01.159Z,1014.45
2022-10-31T06:08:01.648Z,1014.48
2022-10-31T06:09:01.137Z,1014.43
2022-10-31T06:10:01.133Z,1014.45
2022-10-31T06:11:01.137Z,1014.52
2022-10-31T06:12:01.116Z,1014.48
2022-10-31T06:13:01.089Z,1014.48
2022-10-31T06:14:01.083Z,1014.51
2022-10-31T06:15:01.067Z,1014.50
2022-10-31T06:16:01.068Z,1014.51
2022-10-31T06:17:01.044Z,1014.48
2022-10-31T06:18:01.596Z,1014.49
2022-10-31T06:19:01.019Z,1014.54
2022-10-31T06:20:01.035Z,1014.52
2022-10-31T06:21:01.022Z,1014.51
2022-10-31T06:22:00.989Z,1014.49
2022-10-31T06:23:01.389Z,1014.49
2022-10-31T06:24:00.974Z,1014.48
2022-10-31T06:25:00.954Z,1014.50
2022-10-31T06:26:00.959Z,1014.48
2022-10-31T06:27:00.939Z,1014.51
2022-10-31T06:28:00.922Z,1014.50
2022-10-31T06:29:04.044Z,1014.52
2022-10-31T06:30:00.894Z,1014.52
2022-10-31T06:31:00.909Z,1014.52
2022-10-31T06:32:00.878Z,1014.51
2022-10-31T06:33:01.168Z,1014.55
2022-10-31T06:34:00.868Z,1014.52
2022-10-31T06:35:00.858Z,1014.56
2022-10-31T06:36:00.873Z,1014.57
2022-10-31T06:37:00.824Z,1014.58
2022-10-31T06:38:01.207Z,1014.61
2022-10-31T06:39:00.799Z,1014.57
2022-10-31T06:40:00.827Z,1014.55
2022-10-31T06:41:00.799Z,1014.57
2022-10-31T06:42:00.769Z,1014.55
2022-10-31T06:43:00.758Z,1014.54
2022-10-31T06:44:05.012Z,1014.50
2022-10-31T06:45:01.728Z,1014.48
2022-10-31T06:46:00.717Z,1014.46
2022-10-31T06:47:00.725Z,1014.48
2022-10-31T06:48:17.959Z,1014.46
2022-10-31T06:49:01.684Z,1014.50
2022-10-31T06:50:00.782Z,1014.47
2022-10-31T06:51:00.736Z,1014.50
2022-10-31T06:52:00.693Z,1014.44
2022-10-31T06:53:00.739Z,1014.47
2022-10-31T06:54:00.627Z,1014.42
2022-10-31T06:55:00.623Z,1014.42
2022-10-31T06:56:00.603Z,1014.47
2022-10-31T06:57:00.610Z,1014.45
2022-10-31T06:58:02.996Z,1014.42
2022-10-31T06:59:00.574Z,1014.44
2022-10-31T07:00:00.560Z,1014.41
2022-10-31T07:01:00.668Z,1014.44
2022-10-31T07:02:00.723Z,1014.44
2022-10-31T07:03:00.541Z,1014.45
2022-10-31T07:04:00.518Z,1014.49
2022-10-31T07:05:00.501Z,1014.48
2022-10-31T07:06:00.492Z,1014.50
2022-10-31T07:07:00.495Z,1014.52
2022-10-31T07:08:00.786Z,1014.50
2022-10-31T07:09:00.458Z,1014.51
2022-10-31T07:10:00.599Z,1014.52
2022-10-31T07:11:00.442Z,1014.48
2022-10-31T07:12:00.456Z,1014.50
2022-10-31T07:13:00.789Z,1014.51
2022-10-31T07:14:00.410Z,1014.51
2022-10-31T07:15:00.395Z,1014.50
2022-10-31T07:16:00.379Z,1014.53
2022-10-31T07:17:00.409Z,1014.53
2022-10-31T07:18:00.363Z,1014.53
2022-10-31T07:19:00.352Z,1014.52
2022-10-31T07:20:00.344Z,1014.55
2022-10-31T07:21:00.330Z,1014.54
2022-10-31T07:22:00.318Z,1014.48
2022-10-31T07:23:00.804Z,1014.50
2022-10-31T07:24:00.318Z,1014.47
2022-10-31T07:25:00.294Z,1014.51
2022-10-31T07:26:00.270Z,1014.54
2022-10-31T07:28:00.696Z,1014.59
2022-10-31T07:29:00.246Z,1014.67
2022-10-31T07:30:00.913Z,1014.68
2022-10-31T07:31:00.216Z,1014.70
2022-10-31T07:32:00.202Z,1014.69
2022-10-31T07:33:00.198Z,1014.73
2022-10-31T07:34:00.378Z,1014.73
2022-10-31T07:35:00.226Z,1014.73
2022-10-31T07:36:00.153Z,1014.78
2022-10-31T07:37:00.144Z,1014.80
2022-10-31T07:38:00.593Z,1014.78
2022-10-31T07:39:00.137Z,1014.78
2022-10-31T07:40:00.148Z,1014.71
2022-10-31T07:41:00.100Z,1014.72
2022-10-31T07:42:00.096Z,1014.69
2022-10-31T07:43:00.085Z,1014.72
2022-10-31T07:44:00.138Z,1014.69
2022-10-31T07:45:00.063Z,1014.68
2022-10-31T07:46:00.055Z,1014.67
2022-10-31T07:47:00.044Z,1014.69
2022-10-31T07:48:00.351Z,1014.66
2022-10-31T07:49:00.229Z,1014.70
2022-10-31T07:49:59.997Z,1014.74
2022-10-31T07:51:00.011Z,1014.80
2022-10-31T07:51:59.975Z,1014.82
2022-10-31T07:52:59.974Z,1014.87
2022-10-31T07:53:59.980Z,1014.87
2022-10-31T07:54:59.943Z,1014.91
2022-10-31T07:56:00.035Z,1014.93
2022-10-31T07:56:59.922Z,1014.97
2022-10-31T07:58:00.341Z,1014.96
2022-10-31T07:58:59.909Z,1014.93
2022-10-31T07:59:59.886Z,1014.88
2022-10-31T08:01:00.081Z,1014.88
2022-10-31T08:01:59.865Z,1014.88
2022-10-31T08:03:00.177Z,1014.87
2022-10-31T08:03:59.853Z,1014.89
2022-10-31T08:05:01.296Z,1014.90
2022-10-31T08:05:59.826Z,1014.84
2022-10-31T08:06:59.807Z,1014.86
2022-10-31T08:08:00.026Z,1014.85
2022-10-31T08:08:59.803Z,1014.85
2022-10-31T08:09:59.785Z,1014.86
2022-10-31T08:10:59.766Z,1014.88
2022-10-31T08:11:59.775Z,1014.86
2022-10-31T08:12:59.744Z,1014.89
2022-10-31T08:13:59.743Z,1014.86
2022-10-31T08:14:59.733Z,1014.88
2022-10-31T08:15:59.704Z,1014.85
2022-10-31T08:16:59.694Z,1014.83
2022-10-31T08:18:00.067Z,1014.82
2022-10-31T08:18:59.695Z,1014.79
2022-10-31T08:19:59.664Z,1014.78
2022-10-31T08:20:59.657Z,1014.76
2022-10-31T08:21:59.644Z,1014.73
2022-10-31T08:22:59.632Z,1014.74
2022-10-31T08:23:59.630Z,1014.74
2022-10-31T08:24:59.613Z,1014.75
2022-10-31T08:25:59.593Z,1014.70
2022-10-31T08:26:59.590Z,1014.69
2022-10-31T08:27:59.868Z,1014.68
2022-10-31T08:28:59.574Z,1014.67
2022-10-31T08:29:59.553Z,1014.65
2022-10-31T08:30:59.546Z,1014.60
2022-10-31T08:31:59.537Z,1014.61
2022-10-31T08:32:59.531Z,1014.57
2022-10-31T08:33:59.517Z,1014.57
2022-10-31T08:34:59.493Z,1014.57
2022-10-31T08:35:59.485Z,1014.56
2022-10-31T08:36:59.479Z,1014.55
2022-10-31T08:37:59.849Z,1014.52
2022-10-31T08:39:02.096Z,1014.54
2022-10-31T08:39:59.443Z,1014.54
2022-10-31T08:40:59.427Z,1014.54
2022-10-31T08:41:59.414Z,1014.56
2022-10-31T08:42:59.415Z,1014.53
2022-10-31T08:43:59.420Z,1014.52
2022-10-31T08:44:59.398Z,1014.50
2022-10-31T08:45:59.375Z,1014.47
2022-10-31T08:46:59.365Z,1014.46
2022-10-31T08:47:59.805Z,1014.48
2022-10-31T08:48:59.348Z,1014.45
2022-10-31T08:49:59.342Z,1014.43
2022-10-31T08:50:59.319Z,1014.43
2022-10-31T08:51:59.314Z,1014.41
2022-10-31T08:53:05.280Z,1014.44
2022-10-31T08:54:00.292Z,1014.39
2022-10-31T08:54:59.289Z,1014.42
2022-10-31T08:55:59.270Z,1014.43
2022-10-31T08:56:59.253Z,1014.46
2022-10-31T08:57:59.761Z,1014.43
2022-10-31T08:58:59.234Z,1014.45
2022-10-31T08:59:59.243Z,1014.46
2022-10-31T09:00:59.248Z,1014.44
2022-10-31T09:01:59.338Z,1014.45
2022-10-31T09:02:59.189Z,1014.46
2022-10-31T09:03:59.181Z,1014.41
2022-10-31T09:04:59.201Z,1014.41
2022-10-31T09:05:59.176Z,1014.38
2022-10-31T09:07:20.067Z,1014.40
2022-10-31T09:08:00.668Z,1014.35
2022-10-31T09:08:59.125Z,1014.38
2022-10-31T09:09:59.114Z,1014.35
2022-10-31T09:10:59.096Z,1014.38
2022-10-31T09:11:59.093Z,1014.32
2022-10-31T09:12:59.118Z,1014.34
2022-10-31T09:13:59.054Z,1014.34
2022-10-31T09:14:59.068Z,1014.33
2022-10-31T09:15:59.066Z,1014.30
2022-10-31T09:16:59.021Z,1014.29
2022-10-31T09:17:59.479Z,1014.27
2022-10-31T09:18:58.996Z,1014.25
2022-10-31T09:19:58.997Z,1014.22
2022-10-31T09:20:58.996Z,1014.21
2022-10-31T09:21:58.972Z,1014.25
2022-10-31T09:22:58.968Z,1014.22
2022-10-31T09:23:58.950Z,1014.22
2022-10-31T09:24:58.938Z,1014.20
2022-10-31T09:25:58.942Z,1014.22
2022-10-31T09:26:58.916Z,1014.24
2022-10-31T09:27:59.333Z,1014.19
2022-10-31T09:28:58.884Z,1014.24
2022-10-31T09:29:58.886Z,1014.20
2022-10-31T09:30:58.882Z,1014.16
2022-10-31T09:31:58.878Z,1014.16
2022-10-31T09:32:58.855Z,1014.15
2022-10-31T09:33:58.847Z,1014.11
2022-10-31T09:34:58.913Z,1014.10
2022-10-31T09:35:58.838Z,1014.07
2022-10-31T09:36:58.803Z,1014.11
2022-10-31T09:37:59.197Z,1014.13
2022-10-31T09:38:58.780Z,1014.12
2022-10-31T09:39:58.768Z,1014.10
2022-10-31T09:40:58.767Z,1014.06
2022-10-31T09:41:58.748Z,1014.10
2022-10-31T09:42:58.732Z,1014.10
2022-10-31T09:43:58.760Z,1014.05
2022-10-31T09:44:58.709Z,1014.04
2022-10-31T09:45:58.712Z,1014.02
2022-10-31T09:46:58.694Z,1013.98
2022-10-31T09:47:59.024Z,1014.00
2022-10-31T09:48:58.668Z,1013.96
2022-10-31T09:49:58.759Z,1013.92
2022-10-31T09:50:58.650Z,1013.89
2022-10-31T09:51:58.739Z,1013.84
2022-10-31T09:52:58.922Z,1013.83
2022-10-31T09:53:58.777Z,1013.85
2022-10-31T09:54:58.601Z,1013.81
2022-10-31T09:55:58.597Z,1013.80
2022-10-31T09:56:58.578Z,1013.71
2022-10-31T09:57:58.747Z,1013.72
2022-10-31T09:58:58.558Z,1013.69
2022-10-31T09:59:58.542Z,1013.67
2022-10-31T10:00:58.597Z,1013.70
2022-10-31T10:01:58.597Z,1013.66
2022-10-31T10:02:58.924Z,1013.71
2022-10-31T10:03:58.514Z,1013.64
2022-10-31T10:04:58.484Z,1013.64
2022-10-31T10:05:58.490Z,1013.61
2022-10-31T10:06:58.465Z,1013.61
2022-10-31T10:07:58.455Z,1013.59
2022-10-31T10:08:58.437Z,1013.57
2022-10-31T10:09:58.433Z,1013.59
2022-10-31T10:10:58.425Z,1013.59
2022-10-31T10:11:58.410Z,1013.57
2022-10-31T10:13:00.356Z,1013.60
2022-10-31T10:13:58.379Z,1013.67
2022-10-31T10:14:58.372Z,1013.58
2022-10-31T10:15:58.378Z,1013.60
2022-10-31T10:16:58.348Z,1013.60
2022-10-31T10:17:58.336Z,1013.55
2022-10-31T10:18:58.324Z,1013.50
2022-10-31T10:19:58.337Z,1013.51
2022-10-31T10:20:58.337Z,1013.43
2022-10-31T10:21:58.291Z,1013.46
2022-10-31T10:22:58.585Z,1013.40
2022-10-31T10:23:58.282Z,1013.42
2022-10-31T10:24:58.267Z,1013.42
2022-10-31T10:25:58.264Z,1013.39
2022-10-31T10:26:58.243Z,1013.39
2022-10-31T10:27:58.614Z,1013.37
2022-10-31T10:28:58.218Z,1013.33
2022-10-31T10:29:58.236Z,1013.36
2022-10-31T10:30:58.216Z,1013.33
2022-10-31T10:31:58.187Z,1013.30
2022-10-31T10:32:58.180Z,1013.25
2022-10-31T10:33:58.165Z,1013.23
2022-10-31T10:34:58.152Z,1013.26
2022-10-31T10:35:58.179Z,1013.26
2022-10-31T10:36:58.137Z,1013.25
2022-10-31T10:37:58.490Z,1013.22
2022-10-31T10:38:58.100Z,1013.22
2022-10-31T10:39:58.091Z,1013.19
2022-10-31T10:40:58.101Z,1013.20
2022-10-31T10:41:58.075Z,1013.21
2022-10-31T10:42:58.100Z,1013.19
2022-10-31T10:43:58.061Z,1013.18
2022-10-31T10:44:58.043Z,1013.19
2022-10-31T10:45:58.042Z,1013.19
2022-10-31T10:46:58.016Z,1013.15
2022-10-31T10:47:58.400Z,1013.14
2022-10-31T10:48:58.002Z,1013.15
2022-10-31T10:49:57.988Z,1013.09
2022-10-31T10:50:57.982Z,1013.07
2022-10-31T10:52:13.140Z,1013.05
2022-10-31T10:52:58.955Z,1013.02
2022-10-31T10:53:57.946Z,1013.03
2022-10-31T10:54:57.930Z,1012.96
2022-10-31T10:55:57.929Z,1012.95
2022-10-31T10:56:57.907Z,1012.90
2022-10-31T10:57:58.266Z,1012.89
2022-10-31T10:58:57.888Z,1012.86
2022-10-31T10:59:57.876Z,1012.85
2022-10-31T11:00:57.965Z,1012.85
2022-10-31T11:01:57.852Z,1012.85
2022-10-31T11:02:57.837Z,1012.89
2022-10-31T11:03:57.831Z,1012.88
2022-10-31T11:04:57.825Z,1012.89
2022-10-31T11:05:57.824Z,1012.91
2022-10-31T11:06:57.819Z,1012.98
2022-10-31T11:07:58.254Z,1012.96
2022-10-31T11:08:57.843Z,1012.94
2022-10-31T11:09:57.867Z,1012.97
2022-10-31T11:10:57.764Z,1012.96
2022-10-31T11:11:57.919Z,1012.92
2022-10-31T11:12:58.100Z,1012.89
2022-10-31T11:13:57.718Z,1012.84
2022-10-31T11:14:57.715Z,1012.81
2022-10-31T11:15:57.724Z,1012.80
2022-10-31T11:16:57.685Z,1012.75
2022-10-31T11:17:57.690Z,1012.79
2022-10-31T11:18:57.664Z,1012.79
2022-10-31T11:19:57.653Z,1012.74
2022-10-31T11:20:57.656Z,1012.73
2022-10-31T11:21:57.639Z,1012.74
2022-10-31T11:22:57.624Z,1012.72
2022-10-31T11:23:57.634Z,1012.70
2022-10-31T11:24:57.599Z,1012.67
2022-10-31T11:25:57.601Z,1012.65
2022-10-31T11:26:57.574Z,1012.70
2022-10-31T11:27:57.558Z,1012.69
2022-10-31T11:28:57.555Z,1012.65
2022-10-31T11:30:00.734Z,1012.68
2022-10-31T11:30:57.556Z,1012.64
2022-10-31T11:31:57.523Z,1012.65
2022-10-31T11:32:57.812Z,1012.64
2022-10-31T11:33:57.503Z,1012.67
2022-10-31T11:34:57.484Z,1012.65
2022-10-31T11:35:58.450Z,1012.63
2022-10-31T11:36:57.471Z,1012.58
2022-10-31T11:37:57.843Z,1012.56
2022-10-31T11:38:57.433Z,1012.54
2022-10-31T11:39:57.451Z,1012.53
2022-10-31T11:40:57.428Z,1012.53
2022-10-31T11:41:57.403Z,1012.51
2022-10-31T11:42:57.390Z,1012.50
2022-10-31T11:43:57.382Z,1012.46
2022-10-31T11:44:57.375Z,1012.43
2022-10-31T11:45:57.390Z,1012.39
2022-10-31T11:46:57.348Z,1012.35
2022-10-31T11:47:59.775Z,1012.32
2022-10-31T11:48:57.328Z,1012.34
2022-10-31T11:49:57.318Z,1012.31
2022-10-31T11:50:57.321Z,1012.31
2022-10-31T11:51:57.297Z,1012.29
2022-10-31T11:52:57.283Z,1012.26
2022-10-31T11:54:00.139Z,1012.24
2022-10-31T11:54:58.260Z,1012.21
2022-10-31T11:55:57.280Z,1012.22
2022-10-31T11:56:57.232Z,1012.23
2022-10-31T11:57:57.428Z,1012.20
2022-10-31T11:58:57.217Z,1012.20
2022-10-31T11:59:57.207Z,1012.18
2022-10-31T12:00:57.223Z,1012.12
2022-10-31T12:01:57.301Z,1012.09
2022-10-31T12:02:57.290Z,1012.13
2022-10-31T12:03:57.160Z,1012.07
2022-10-31T12:04:57.149Z,1012.08
2022-10-31T12:05:57.146Z,1012.04